Portada
METAR-TAF:

METAR-TAF

Aeropuertos :

Aeropuerto Internacional de Kansas City

Kansas City, Misuri, Estados Unidos

latitud: 39-17-50N, longitud: 094-43-50W, altitud: 312 m

Observación

El informe se hizo hace 1 hora y 12 minutos, a las 07:53 UTC
Viento 5 kt del sur-sureste
Temperatura 23°C
Humedad 89%
Presión 1015 hPa
Visibilidad: 16.1 km
Cielo despejado

METAR: KMCI 060753Z 15005KT 10SM CLR 23/21 A2996 RMK AO2 SLP134 T02280211 $

Hora: 04:05 (09:05 UTC)

Pronóstico

El informe se hizo hace 3 horas y 45 minutos, a las 05:20 UTC
Pronóstico válido del 06 a las 06 UTC al 07 a las 06 UTC
Viento 8 kt del sureste
Visibilidad: 10 km
Cielo despejado
A partir de las 06 a las 1700 UTC
Viento 9 kt del sur-sureste
Visibilidad: 10 km
Nubes dispersas a una altura de 4000 ft
A partir de las 07 a las 0100 UTC
Viento 9 kt del sureste
Visibilidad: 10 km
Cielo despejado

TAF: KMCI 060520Z 0606/0706 13008KT P6SM SKC FM061700 15009KT P6SM SCT040 FM070100 13009KT P6SM SKC

Observaciones y pronósticos meteorológicos de más de 4000 aeropuertos (mensajes METAR y TAF).

Los puntos amarillos y rojos representan las estaciones disponibles.

Ponga el ratón en el punto deseado para ver el nombre de la estación.

Haga clic para ver las observaciones y los pronósticos meteorológicos.

Para cambiar el mapa : haga clic en los botones verdes con una cruz de color negro para hacer un zoom, en el botón verde con un guión para alejar o en las flechas verdes para mapas adyacentes.


METAR-TAF: